Time;durP1;ratioP1;P1;durP2;ratioP2;P2;SDS_P1;SDS_P2;PMS_P1;PMS_P2;Temp;Humidity;BMP_temperature;BMP_pressure;BME280_temperature;BME280_humidity;BME280_pressure;Samples;Min_cycle;Max_cycle;Signal;HPM_P1;HPM_P2
2023/07/22 00:01:55;;;;;;;14.17;8.07;;;15.50;99.90;;;;;;5047961;28;20205;-62
2023/07/22 00:04:23;;;;;;;12.27;8.90;;;15.50;99.90;;;;;;5057070;28;20205;-64
2023/07/22 00:06:53;;;;;;;13.80;9.20;;;15.60;99.90;;;;;;5049812;28;20194;-64
2023/07/22 00:09:21;;;;;;;10.93;8.60;;;15.50;99.90;;;;;;5060667;28;20203;-64
2023/07/22 00:11:50;;;;;;;17.43;9.00;;;15.60;99.90;;;;;;5049228;28;20199;-64
2023/07/22 00:14:19;;;;;;;13.60;8.73;;;15.60;99.90;;;;;;5049964;28;20216;-64
2023/07/22 00:16:47;;;;;;;10.87;8.47;;;15.60;99.90;;;;;;5051606;28;20187;-64
2023/07/22 00:19:16;;;;;;;15.03;8.67;;;15.60;99.90;;;;;;5051599;28;20199;-64
2023/07/22 00:21:48;;;;;;;15.37;8.70;;;15.60;99.90;;;;;;5048052;28;20191;-64
2023/07/22 00:24:18;;;;;;;14.80;8.67;;;15.60;99.90;;;;;;5053859;28;20222;-64
2023/07/22 00:26:46;;;;;;;14.33;9.50;;;15.60;99.90;;;;;;5044629;28;20253;-63
2023/07/22 00:29:15;;;;;;;14.90;9.20;;;15.60;99.90;;;;;;5055414;28;20194;-63
2023/07/22 00:31:43;;;;;;;12.97;8.43;;;15.60;99.90;;;;;;5051790;28;20194;-65
2023/07/22 00:34:11;;;;;;;12.17;8.97;;;15.70;99.90;;;;;;5046593;28;20186;-65
2023/07/22 00:36:40;;;;;;;11.43;8.90;;;15.60;99.90;;;;;;5049496;28;20190;-65
2023/07/22 00:39:08;;;;;;;14.53;9.37;;;15.70;99.90;;;;;;5051854;28;20198;-65
2023/07/22 00:41:38;;;;;;;13.03;8.53;;;15.70;99.90;;;;;;5052297;28;20195;-65
2023/07/22 00:44:06;;;;;;;15.90;9.83;;;15.60;99.90;;;;;;5053241;28;20195;-64
2023/07/22 00:46:35;;;;;;;16.07;9.70;;;15.60;99.90;;;;;;5050836;28;20206;-64
2023/07/22 00:49:04;;;;;;;13.70;9.43;;;15.60;99.90;;;;;;5051187;28;20308;-64
2023/07/22 00:51:32;;;;;;;12.70;8.80;;;15.60;99.90;;;;;;5046598;28;20204;-65
2023/07/22 00:54:00;;;;;;;13.77;9.57;;;15.50;99.90;;;;;;5050141;28;20237;-65
2023/07/22 00:56:29;;;;;;;12.40;8.53;;;15.50;99.90;;;;;;5055213;28;20226;-64
2023/07/22 00:59:00;;;;;;;14.67;9.47;;;15.50;99.90;;;;;;5052831;28;20213;-64
2023/07/22 01:01:29;;;;;;;15.00;9.20;;;15.50;99.90;;;;;;5045738;28;20217;-65
2023/07/22 01:04:00;;;;;;;16.13;9.80;;;15.50;99.90;;;;;;5048086;28;20191;-65
2023/07/22 01:06:30;;;;;;;11.27;8.37;;;15.40;99.90;;;;;;5050565;28;20209;-64
2023/07/22 01:08:59;;;;;;;11.73;8.83;;;15.50;99.90;;;;;;5048331;28;20194;-64
2023/07/22 01:11:27;;;;;;;14.03;9.67;;;15.50;99.90;;;;;;5050255;28;20197;-64
2023/07/22 01:13:59;;;;;;;22.67;9.83;;;15.40;99.90;;;;;;5050080;28;20205;-64
2023/07/22 01:16:29;;;;;;;14.10;9.43;;;15.40;99.90;;;;;;5052620;28;20300;-64
2023/07/22 01:18:58;;;;;;;13.07;8.93;;;15.40;99.90;;;;;;5053004;28;20516;-65
2023/07/22 01:21:27;;;;;;;16.53;9.23;;;15.40;99.90;;;;;;5045688;28;20188;-64
2023/07/22 01:23:58;;;;;;;12.93;9.30;;;15.30;99.90;;;;;;5049445;28;20202;-64
2023/07/22 01:26:26;;;;;;;16.83;9.17;;;15.30;99.90;;;;;;5045716;28;20589;-65
2023/07/22 01:29:04;;;;;;;16.57;10.03;;;15.30;99.90;;;;;;5050648;28;20199;-64
2023/07/22 01:31:35;;;;;;;17.73;10.13;;;15.30;99.90;;;;;;5048281;28;20192;-64
2023/07/22 01:34:04;;;;;;;14.70;9.20;;;15.20;99.90;;;;;;5049684;28;20631;-65
2023/07/22 01:36:33;;;;;;;16.77;9.53;;;15.20;99.90;;;;;;5051662;28;20212;-64
2023/07/22 01:39:05;;;;;;;15.77;9.70;;;15.20;99.90;;;;;;5048795;28;20268;-64
2023/07/22 01:41:33;;;;;;;15.33;9.53;;;15.10;99.90;;;;;;5049640;28;20736;-64
2023/07/22 01:44:02;;;;;;;18.83;10.03;;;15.10;99.90;;;;;;5046430;28;20266;-64
2023/07/22 01:46:30;;;;;;;15.33;9.13;;;15.10;99.90;;;;;;5044798;28;20809;-65
2023/07/22 01:48:58;;;;;;;12.70;9.30;;;15.10;99.90;;;;;;5046324;28;20264;-65
2023/07/22 01:51:27;;;;;;;17.63;9.60;;;15.10;99.90;;;;;;5044905;28;20193;-64
2023/07/22 01:53:56;;;;;;;12.73;9.80;;;15.10;9.60;;;;;;5051162;28;20189;-65
2023/07/22 01:56:26;;;;;;;16.07;9.70;;;15.10;1.00;;;;;;5049572;28;20286;-65
2023/07/22 01:58:55;;;;;;;15.37;9.83;;;15.00;3.50;;;;;;5056025;28;20186;-65
2023/07/22 02:01:24;;;;;;;16.07;10.03;;;15.10;1.00;;;;;;5044415;28;20296;-64
2023/07/22 02:03:52;;;;;;;18.33;10.43;;;15.10;3.50;;;;;;5046464;28;20201;-65
2023/07/22 02:06:21;;;;;;;16.10;9.77;;;15.10;4.80;;;;;;5046378;28;20599;-65
2023/07/22 02:08:49;;;;;;;16.60;9.70;;;15.10;5.20;;;;;;5035113;28;20193;-65
2023/07/22 02:11:17;;;;;;;15.23;10.10;;;15.00;1.90;;;;;;5043820;28;20695;-64
2023/07/22 02:13:48;;;;;;;16.43;10.43;;;14.90;9.10;;;;;;5048056;28;20761;-65
2023/07/22 02:16:17;;;;;;;14.63;9.93;;;14.90;15.00;;;;;;5051519;28;20204;-64
2023/07/22 02:18:45;;;;;;;17.90;10.70;;;14.90;18.10;;;;;;5050221;28;20195;-64
2023/07/22 02:21:13;;;;;;;15.87;9.83;;;14.90;20.00;;;;;;5033510;28;20199;-65
2023/07/22 02:23:42;;;;;;;16.37;10.00;;;14.90;20.20;;;;;;5050376;28;20190;-64
2023/07/22 02:26:10;;;;;;;17.67;10.40;;;14.90;24.60;;;;;;5037273;28;20258;-65
2023/07/22 02:28:39;;;;;;;16.40;9.87;;;14.90;31.20;;;;;;5057842;28;20196;-65
2023/07/22 02:31:10;;;;;;;15.57;9.70;;;14.90;26.40;;;;;;5045003;28;20235;-64
2023/07/22 02:33:39;;;;;;;16.70;10.20;;;15.00;24.50;;;;;;5051846;28;20188;-64
2023/07/22 02:36:08;;;;;;;17.80;10.37;;;14.90;21.90;;;;;;5051835;28;20188;-64
2023/07/22 02:38:36;;;;;;;19.13;10.67;;;14.90;29.30;;;;;;5046913;28;20194;-64
2023/07/22 02:41:06;;;;;;;17.13;10.63;;;14.90;26.70;;;;;;5051439;28;20251;-64
2023/07/22 02:43:35;;;;;;;18.27;10.00;;;14.90;25.60;;;;;;5051813;28;20606;-65
2023/07/22 02:46:05;;;;;;;18.00;10.60;;;14.80;35.30;;;;;;5049895;28;20241;-65
2023/07/22 02:48:35;;;;;;;15.67;10.00;;;14.80;40.10;;;;;;5046372;28;20656;-64
2023/07/22 02:51:05;;;;;;;20.87;10.33;;;14.70;48.20;;;;;;5040776;28;20193;-64
2023/07/22 02:53:34;;;;;;;18.90;10.47;;;14.70;45.20;;;;;;5047605;28;20197;-64
2023/07/22 02:56:02;;;;;;;17.40;10.40;;;14.70;50.20;;;;;;5050942;28;20191;-64
2023/07/22 02:58:31;;;;;;;21.37;11.07;;;14.70;54.50;;;;;;5048511;28;20190;-64
2023/07/22 03:01:00;;;;;;;17.37;10.37;;;14.70;46.80;;;;;;5044721;28;20202;-64
2023/07/22 03:03:28;;;;;;;18.40;11.83;;;14.60;54.00;;;;;;5048378;28;20285;-64
2023/07/22 03:05:58;;;;;;;25.30;11.60;;;14.60;56.20;;;;;;5045041;28;20267;-64
2023/07/22 03:08:26;;;;;;;16.83;10.90;;;14.50;59.30;;;;;;5048737;28;20197;-64
2023/07/22 03:10:55;;;;;;;17.27;11.07;;;14.40;66.60;;;;;;5044870;28;20186;-64
2023/07/22 03:13:23;;;;;;;18.37;10.77;;;14.40;67.60;;;;;;5043047;28;20685;-64
2023/07/22 03:15:51;;;;;;;22.27;10.87;;;14.40;71.00;;;;;;5048027;28;20294;-65
2023/07/22 03:18:20;;;;;;;23.63;10.90;;;14.40;77.50;;;;;;5048624;28;20197;-65
2023/07/22 03:20:48;;;;;;;16.90;10.60;;;14.40;73.90;;;;;;5047394;28;20212;-64
2023/07/22 03:23:18;;;;;;;17.77;11.53;;;14.40;79.30;;;;;;5047910;28;20203;-64
2023/07/22 03:25:46;;;;;;;20.73;10.80;;;14.40;84.20;;;;;;5045966;28;20296;-64
2023/07/22 03:28:16;;;;;;;22.33;12.10;;;14.40;79.40;;;;;;5050122;28;20259;-64
2023/07/22 03:30:45;;;;;;;16.30;10.30;;;14.30;82.20;;;;;;5053033;28;20192;-64
2023/07/22 03:33:14;;;;;;;18.53;10.63;;;14.30;84.20;;;;;;5051643;28;20182;-64
2023/07/22 03:35:43;;;;;;;17.70;11.13;;;14.30;86.10;;;;;;5048422;28;20632;-64
2023/07/22 03:38:11;;;;;;;19.47;11.23;;;14.30;89.00;;;;;;5054806;28;20204;-64
2023/07/22 03:40:41;;;;;;;20.30;10.87;;;14.20;91.40;;;;;;5054639;28;20280;-64
2023/07/22 03:43:10;;;;;;;24.80;11.53;;;14.20;92.20;;;;;;5056805;28;20197;-65
2023/07/22 03:45:39;;;;;;;18.33;11.33;;;14.20;91.90;;;;;;5049084;28;20195;-64
2023/07/22 03:48:08;;;;;;;19.90;10.83;;;14.10;92.80;;;;;;5053523;28;20239;-64
2023/07/22 03:50:37;;;;;;;19.83;11.53;;;14.10;93.50;;;;;;5045534;28;20212;-64
2023/07/22 03:53:05;;;;;;;20.57;10.57;;;14.10;94.20;;;;;;5050566;28;20251;-65
2023/07/22 03:55:34;;;;;;;19.87;11.73;;;14.10;95.70;;;;;;5054219;28;20255;-65
2023/07/22 03:58:03;;;;;;;18.17;11.43;;;14.10;97.00;;;;;;5053085;28;20189;-65
2023/07/22 04:00:32;;;;;;;23.13;11.73;;;14.00;98.50;;;;;;5047966;28;20316;-64
2023/07/22 04:03:00;;;;;;;21.70;12.23;;;14.00;99.70;;;;;;5050076;28;20913;-64
2023/07/22 04:05:29;;;;;;;19.67;11.17;;;14.00;99.90;;;;;;5052796;28;20190;-64
2023/07/22 04:07:57;;;;;;;21.13;11.13;;;14.00;99.90;;;;;;5052643;28;20312;-64
2023/07/22 04:10:28;;;;;;;20.97;12.23;;;14.00;99.90;;;;;;5050930;28;20242;-64
2023/07/22 04:12:57;;;;;;;21.13;12.73;;;14.00;99.90;;;;;;5050585;28;20198;-64
2023/07/22 04:15:26;;;;;;;24.33;11.47;;;14.00;99.90;;;;;;5050710;28;20212;-64
2023/07/22 04:17:55;;;;;;;22.73;11.47;;;14.00;99.90;;;;;;5051696;28;20184;-64
2023/07/22 04:20:24;;;;;;;20.30;11.33;;;14.00;99.90;;;;;;5050469;28;21588;-64
2023/07/22 04:22:52;;;;;;;22.60;12.17;;;14.10;99.90;;;;;;5040710;28;20217;-64
2023/07/22 04:25:21;;;;;;;22.27;11.63;;;14.10;99.90;;;;;;5061228;28;20629;-64
2023/07/22 04:27:49;;;;;;;19.60;11.67;;;14.10;99.90;;;;;;5051175;28;20212;-64
2023/07/22 04:30:20;;;;;;;19.07;11.30;;;14.10;99.90;;;;;;5057011;28;20221;-64
2023/07/22 04:32:51;;;;;;;21.57;11.53;;;14.10;99.90;;;;;;5044411;28;20193;-64
2023/07/22 04:35:21;;;;;;;20.63;11.43;;;14.10;99.90;;;;;;5044730;28;20199;-64
2023/07/22 04:37:49;;;;;;;21.73;12.00;;;14.10;99.90;;;;;;5050377;28;20193;-64
2023/07/22 04:40:18;;;;;;;26.07;12.27;;;14.10;99.90;;;;;;5048851;28;20537;-64
2023/07/22 04:42:47;;;;;;;24.00;12.03;;;13.90;99.90;;;;;;5049651;28;20623;-64
2023/07/22 04:45:15;;;;;;;23.37;12.20;;;13.90;99.90;;;;;;5052735;28;20199;-64
2023/07/22 04:47:46;;;;;;;19.67;11.90;;;13.90;99.90;;;;;;5047445;28;20202;-64
2023/07/22 04:50:16;;;;;;;24.00;11.70;;;13.80;99.90;;;;;;5039811;28;20636;-64
2023/07/22 04:52:48;;;;;;;21.90;11.87;;;13.80;99.90;;;;;;5044110;28;20652;-64
2023/07/22 04:55:16;;;;;;;25.17;12.17;;;13.80;99.90;;;;;;5048854;28;20585;-64
2023/07/22 04:57:45;;;;;;;21.13;12.40;;;13.70;99.90;;;;;;5052950;28;20738;-64
2023/07/22 05:00:16;;;;;;;25.47;12.60;;;13.70;99.90;;;;;;5051491;28;20627;-64
2023/07/22 05:02:45;;;;;;;20.87;12.00;;;13.70;99.90;;;;;;5047415;28;20700;-64
2023/07/22 05:05:13;;;;;;;19.87;11.90;;;13.70;99.90;;;;;;5050965;28;20200;-64
2023/07/22 05:07:45;;;;;;;21.20;11.53;;;13.70;99.90;;;;;;5048715;28;20233;-64
2023/07/22 05:10:14;;;;;;;20.53;11.70;;;13.70;99.90;;;;;;5053226;28;20193;-64
2023/07/22 05:12:42;;;;;;;23.27;12.47;;;13.70;99.90;;;;;;5050983;28;20198;-64
2023/07/22 05:15:12;;;;;;;25.10;12.50;;;13.70;99.90;;;;;;5048559;28;20220;-65
2023/07/22 05:17:40;;;;;;;24.23;11.90;;;13.80;99.90;;;;;;5049348;28;20190;-64
2023/07/22 05:20:10;;;;;;;22.93;12.30;;;13.80;99.90;;;;;;5055281;28;20669;-64
2023/07/22 05:22:40;;;;;;;19.17;11.80;;;13.90;99.90;;;;;;5053741;28;20177;-64
2023/07/22 05:25:10;;;;;;;18.80;10.73;;;14.00;99.90;;;;;;5051647;28;20691;-65
2023/07/22 05:27:40;;;;;;;20.83;10.63;;;14.10;99.90;;;;;;5050241;28;20237;-64
2023/07/22 05:30:10;;;;;;;23.70;11.33;;;14.10;99.90;;;;;;5051207;28;20212;-65
2023/07/22 05:32:58;;;;;;;18.27;10.53;;;14.30;99.90;;;;;;5048014;28;20558;-64
2023/07/22 05:35:27;;;;;;;20.03;11.00;;;14.50;99.90;;;;;;5052675;28;20201;-64
2023/07/22 05:37:55;;;;;;;24.30;10.40;;;14.50;98.70;;;;;;5054220;28;20552;-64
2023/07/22 05:40:25;;;;;;;21.70;10.67;;;14.70;93.50;;;;;;5051252;28;20185;-64
2023/07/22 05:42:54;;;;;;;18.93;10.83;;;14.80;90.90;;;;;;5048910;28;20728;-65
2023/07/22 05:45:22;;;;;;;22.70;10.83;;;15.00;84.30;;;;;;5050745;28;20764;-64
2023/07/22 05:47:51;;;;;;;19.87;11.03;;;15.10;71.80;;;;;;5048029;28;20234;-63
2023/07/22 05:50:19;;;;;;;21.13;10.10;;;15.20;63.20;;;;;;5051840;28;20209;-63
2023/07/22 05:52:49;;;;;;;18.53;9.83;;;15.30;52.10;;;;;;5044199;28;20627;-63
2023/07/22 05:55:17;;;;;;;17.70;10.00;;;15.50;40.00;;;;;;5049239;28;20187;-64
2023/07/22 05:57:47;;;;;;;20.60;10.07;;;15.60;23.20;;;;;;5048770;28;20214;-64
2023/07/22 06:00:17;;;;;;;15.80;9.83;;;15.70;23.10;;;;;;5048191;28;20251;-64
2023/07/22 06:02:45;;;;;;;18.47;10.20;;;15.70;23.50;;;;;;5043835;28;20734;-63
2023/07/22 06:05:13;;;;;;;17.50;10.03;;;15.90;16.50;;;;;;5047838;28;20201;-63
2023/07/22 06:07:42;;;;;;;16.97;9.83;;;15.90;14.50;;;;;;5053218;28;20304;-64
2023/07/22 06:10:11;;;;;;;18.17;9.10;;;15.90;12.40;;;;;;5044415;28;20233;-64
2023/07/22 06:12:41;;;;;;;23.43;10.00;;;15.80;14.00;;;;;;5048477;28;20279;-64
2023/07/22 06:15:11;;;;;;;14.43;8.73;;;15.80;18.90;;;;;;5046811;28;20217;-63
2023/07/22 06:17:39;;;;;;;14.13;9.07;;;15.80;23.00;;;;;;5053180;28;20192;-63
2023/07/22 06:20:09;;;;;;;18.67;10.10;;;15.80;26.80;;;;;;5052115;28;20199;-63
2023/07/22 06:22:37;;;;;;;21.30;9.80;;;15.80;34.40;;;;;;5051698;28;20187;-63
2023/07/22 06:25:06;;;;;;;14.77;8.80;;;15.80;33.80;;;;;;5044379;28;20227;-63
2023/07/22 06:27:36;;;;;;;14.17;8.50;;;15.80;38.70;;;;;;5049751;28;20558;-63
2023/07/22 06:30:05;;;;;;;15.73;8.93;;;16.00;35.40;;;;;;5052235;28;20273;-63
2023/07/22 06:32:35;;;;;;;16.97;9.60;;;16.10;19.50;;;;;;5043718;28;20203;-64
2023/07/22 06:35:04;;;;;;;16.70;8.50;;;16.10;11.90;;;;;;5047536;28;20222;-63
2023/07/22 06:37:32;;;;;;;17.37;9.50;;;16.20;14.30;;;;;;5036406;28;20626;-63
2023/07/22 06:40:01;;;;;;;15.93;8.67;;;16.20;8.90;;;;;;5051318;28;20218;-64
2023/07/22 06:42:30;;;;;;;13.30;8.33;;;16.30;10.80;;;;;;5050193;28;20585;-64
2023/07/22 06:44:58;;;;;;;18.40;8.87;;;16.20;6.70;;;;;;5048151;28;20202;-63
2023/07/22 06:47:26;;;;;;;14.90;8.33;;;16.30;7.60;;;;;;5047068;28;20189;-63
2023/07/22 06:49:56;;;;;;;15.53;8.60;;;16.30;3.70;;;;;;5047067;28;20199;-63
2023/07/22 06:52:25;;;;;;;13.93;8.57;;;16.50;2.80;;;;;;5048732;28;20202;-63
2023/07/22 06:54:53;;;;;;;13.60;7.87;;;16.50;1.00;;;;;;5049421;28;20196;-63
2023/07/22 06:57:21;;;;;;;13.50;7.83;;;16.70;1.00;;;;;;5047684;28;20193;-63
2023/07/22 06:59:50;;;;;;;15.93;8.40;;;16.70;1.00;;;;;;5053652;28;20228;-64
2023/07/22 07:02:19;;;;;;;12.60;8.23;;;16.60;1.00;;;;;;5051609;28;20185;-63
2023/07/22 07:04:47;;;;;;;15.43;8.23;;;16.60;1.00;;;;;;5041711;28;20198;-63
2023/07/22 07:07:17;;;;;;;12.50;8.53;;;16.60;1.00;;;;;;5042974;28;20185;-63
2023/07/22 07:09:46;;;;;;;13.03;8.40;;;16.70;5.30;;;;;;5039908;28;20595;-62
2023/07/22 07:12:14;;;;;;;19.33;8.20;;;16.70;5.20;;;;;;5037401;28;20214;-63
2023/07/22 07:14:43;;;;;;;20.53;7.77;;;16.60;1.00;;;;;;5034817;28;20225;-63
2023/07/22 07:17:11;;;;;;;15.00;9.27;;;16.50;1.00;;;;;;5045645;28;20197;-63
2023/07/22 07:19:39;;;;;;;13.20;8.47;;;16.40;6.00;;;;;;5047442;28;20186;-63
2023/07/22 07:22:08;;;;;;;13.90;8.37;;;16.20;16.00;;;;;;5045972;28;20189;-64
2023/07/22 07:24:38;;;;;;;18.40;8.93;;;16.20;23.80;;;;;;5042042;28;20207;-64
2023/07/22 07:27:07;;;;;;;16.57;8.30;;;16.00;27.50;;;;;;5046110;28;20207;-64
2023/07/22 07:29:36;;;;;;;23.03;10.03;;;16.00;53.90;;;;;;5048005;28;20615;-64
2023/07/22 07:32:08;;;;;;;18.53;9.47;;;15.90;73.90;;;;;;5046500;28;20191;-63
2023/07/22 07:34:36;;;;;;;16.10;8.93;;;15.90;88.60;;;;;;5042119;28;20199;-63
2023/07/22 07:37:05;;;;;;;16.50;9.37;;;15.90;95.30;;;;;;5047988;28;20213;-63
2023/07/22 07:39:34;;;;;;;19.87;9.90;;;16.00;97.00;;;;;;5040072;28;20197;-63
2023/07/22 07:42:04;;;;;;;17.53;8.73;;;16.10;93.60;;;;;;5041942;28;20238;-63
2023/07/22 07:44:32;;;;;;;15.77;8.90;;;16.20;93.40;;;;;;5037160;28;20206;-63
2023/07/22 07:47:00;;;;;;;14.37;8.93;;;16.40;88.30;;;;;;5044943;28;20292;-64
2023/07/22 07:49:29;;;;;;;13.30;8.60;;;16.60;84.90;;;;;;5051052;28;20231;-64
2023/07/22 07:51:57;;;;;;;14.87;8.00;;;16.80;88.10;;;;;;5041580;28;20597;-63
2023/07/22 07:54:26;;;;;;;14.60;7.47;;;17.00;73.00;;;;;;5050072;28;20200;-63
2023/07/22 07:56:54;;;;;;;15.63;8.07;;;17.00;13.20;;;;;;5041327;28;20248;-63
2023/07/22 07:59:24;;;;;;;16.63;7.70;;;17.10;50.10;;;;;;5046444;28;20189;-63
2023/07/22 08:01:52;;;;;;;14.30;7.43;;;17.40;30.80;;;;;;5043844;28;20567;-63
2023/07/22 08:04:21;;;;;;;14.23;7.67;;;17.60;8.10;;;;;;5046354;28;20204;-64
2023/07/22 08:06:49;;;;;;;14.67;7.13;;;17.70;1.00;;;;;;5050202;28;20188;-64
2023/07/22 08:09:19;;;;;;;17.00;7.20;;;17.90;1.00;;;;;;5042214;28;20217;-64
2023/07/22 08:11:48;;;;;;;12.27;5.93;;;18.10;1.00;;;;;;5050888;28;20615;-63
2023/07/22 08:14:17;;;;;;;7.97;6.03;;;18.60;1.00;;;;;;5048157;28;20292;-64
2023/07/22 08:16:47;;;;;;;10.73;5.80;;;19.40;1.00;;;;;;5050471;28;20276;-64
2023/07/22 08:19:16;;;;;;;8.50;5.43;;;20.20;1.00;;;;;;5041643;28;20528;-64
2023/07/22 08:21:44;;;;;;;9.43;5.40;;;20.70;1.00;;;;;;5047266;28;20553;-64
2023/07/22 08:24:12;;;;;;;8.33;5.63;;;21.10;1.00;;;;;;5048788;28;20195;-64
2023/07/22 08:26:41;;;;;;;14.73;5.93;;;21.30;1.00;;;;;;5049078;28;20237;-64
2023/07/22 08:29:10;;;;;;;9.70;5.03;;;21.40;1.00;;;;;;5044826;28;20213;-64
2023/07/22 08:31:39;;;;;;;10.33;4.93;;;21.90;1.00;;;;;;5048538;28;20181;-64
2023/07/22 08:34:09;;;;;;;7.07;5.23;;;22.50;1.00;;;;;;5048409;28;21383;-64
2023/07/22 08:36:37;;;;;;;5.40;4.60;;;22.80;99.90;;;;;;5047172;28;20189;-63
2023/07/22 08:39:07;;;;;;;8.13;4.50;;;22.60;99.90;;;;;;5052102;28;20288;-64
2023/07/22 08:41:37;;;;;;;8.30;4.90;;;22.50;99.90;;;;;;5047244;28;20220;-64
2023/07/22 08:44:07;;;;;;;7.80;4.43;;;22.40;99.90;;;;;;5058600;28;20188;-63
2023/07/22 08:46:38;;;;;;;8.10;4.77;;;22.40;99.90;;;;;;5057730;28;20200;-63
2023/07/22 08:49:08;;;;;;;6.07;4.00;;;22.60;99.90;;;;;;5050384;28;20703;-64
2023/07/22 08:51:40;;;;;;;7.47;4.17;;;22.80;99.90;;;;;;5052050;28;20212;-64
2023/07/22 08:54:10;;;;;;;5.90;3.80;;;23.40;98.70;;;;;;5050855;28;20722;-64
2023/07/22 08:56:40;;;;;;;5.07;3.88;;;24.10;1.00;;;;;;5044418;28;20282;-64
2023/07/22 08:59:10;;;;;;;5.55;3.72;;;24.10;1.00;;;;;;5050234;28;20219;-64
2023/07/22 09:01:39;;;;;;;6.82;3.70;;;23.90;1.00;;;;;;5057704;28;20193;-63
2023/07/22 09:04:08;;;;;;;4.88;3.67;;;23.50;1.00;;;;;;5052748;28;20194;-64
2023/07/22 09:06:38;;;;;;;9.43;3.53;;;23.80;1.00;;;;;;5052734;28;20525;-63
2023/07/22 09:09:08;;;;;;;6.22;3.60;;;23.80;1.00;;;;;;5050238;28;20216;-63
2023/07/22 09:11:40;;;;;;;4.45;3.40;;;23.80;1.00;;;;;;5050490;28;20276;-64
2023/07/22 09:14:09;;;;;;;4.50;3.08;;;24.10;99.90;;;;;;5041798;28;20210;-64
2023/07/22 09:16:44;;;;;;;4.30;3.15;;;24.60;99.90;;;;;;5044911;28;20644;-63
2023/07/22 09:19:13;;;;;;;4.55;3.65;;;25.20;1.00;;;;;;5046562;28;20214;-64
2023/07/22 09:21:42;;;;;;;5.80;2.80;;;25.70;76.00;;;;;;5052798;28;20208;-64
2023/07/22 09:24:22;;;;;;;3.22;2.90;;;26.10;99.90;;;;;;5046799;28;20278;-64
2023/07/22 09:26:51;;;;;;;6.18;3.10;;;26.30;1.00;;;;;;5052202;28;20198;-64
2023/07/22 09:29:33;;;;;;;4.53;2.70;;;26.40;1.00;;;;;;5051092;28;20216;-63
2023/07/22 09:32:03;;;;;;;3.35;2.05;;;25.90;9.20;;;;;;5049524;28;20286;-64
2023/07/22 09:34:31;;;;;;;5.22;2.20;;;25.70;1.00;;;;;;5049168;28;20542;-64
2023/07/22 09:37:03;;;;;;;5.65;1.92;;;25.90;1.00;;;;;;5052872;28;20178;-64
2023/07/22 09:39:32;;;;;;;2.08;1.88;;;25.80;1.00;;;;;;5054915;28;20182;-63
2023/07/22 09:42:02;;;;;;;2.38;2.00;;;25.40;42.40;;;;;;5053222;28;20218;-64
2023/07/22 09:44:32;;;;;;;2.40;2.03;;;25.00;1.00;;;;;;5051893;28;20209;-63
2023/07/22 09:47:08;;;;;;;4.10;2.10;;;25.10;99.90;;;;;;5052884;28;20197;-64
2023/07/22 09:49:41;;;;;;;3.50;2.08;;;25.40;1.00;;;;;;5053800;28;20226;-63
2023/07/22 09:52:13;;;;;;;2.80;1.90;;;25.90;1.00;;;;;;5049337;28;20195;-64
2023/07/22 09:54:49;;;;;;;3.45;2.15;;;26.00;48.60;;;;;;5045038;28;20206;-63
2023/07/22 09:57:17;;;;;;;2.00;1.90;;;25.30;99.90;;;;;;5047572;28;20189;-63
2023/07/22 09:59:48;;;;;;;2.00;1.87;;;25.20;1.00;;;;;;5048471;28;20209;-63
2023/07/22 10:02:20;;;;;;;2.50;2.30;;;24.90;1.00;;;;;;5050032;28;20189;-64
2023/07/22 10:04:50;;;;;;;2.72;2.00;;;24.60;1.00;;;;;;5048454;28;20544;-63
2023/07/22 10:07:21;;;;;;;3.20;2.00;;;24.80;93.00;;;;;;5057122;28;20284;-63
2023/07/22 10:09:53;;;;;;;4.33;2.33;;;24.40;99.90;;;;;;5050198;28;20651;-63
2023/07/22 10:12:21;;;;;;;5.53;1.80;;;23.80;1.00;;;;;;5051892;28;20212;-63
2023/07/22 10:14:51;;;;;;;2.07;1.97;;;23.50;99.90;;;;;;5049973;28;22022;-62
2023/07/22 10:17:21;;;;;;;2.07;1.87;;;23.60;99.90;;;;;;5055013;28;20196;-63
2023/07/22 10:19:50;;;;;;;1.80;1.70;;;24.30;99.90;;;;;;5046106;28;20191;-63
2023/07/22 10:22:19;;;;;;;2.60;1.70;;;24.50;1.00;;;;;;5041538;28;20277;-64
2023/07/22 10:24:49;;;;;;;3.60;1.77;;;24.80;99.90;;;;;;5042577;28;20587;-63
2023/07/22 10:27:18;;;;;;;1.90;1.80;;;24.60;99.90;;;;;;5047537;28;20195;-62
2023/07/22 10:29:47;;;;;;;4.20;1.83;;;24.40;99.90;;;;;;5043731;28;20683;-63
2023/07/22 10:32:17;;;;;;;3.13;1.90;;;24.40;1.00;;;;;;5051359;28;20562;-64
2023/07/22 10:34:45;;;;;;;1.90;1.80;;;24.10;1.00;;;;;;5043011;28;20212;-63
2023/07/22 10:37:13;;;;;;;2.60;1.63;;;24.40;1.00;;;;;;5043676;28;20298;-64
2023/07/22 10:39:44;;;;;;;1.80;1.70;;;24.20;1.00;;;;;;5053535;28;20197;-65
2023/07/22 10:42:25;;;;;;;1.70;1.70;;;24.60;1.00;;;;;;5052491;28;20201;-63
2023/07/22 10:44:54;;;;;;;2.00;1.90;;;25.60;1.00;;;;;;5049931;28;20248;-63
2023/07/22 10:47:34;;;;;;;3.27;1.90;;;25.70;1.00;;;;;;5050640;28;20198;-63
2023/07/22 10:50:10;;;;;;;1.80;1.73;;;25.30;99.90;;;;;;5047640;28;20218;-63
2023/07/22 10:52:43;;;;;;;1.90;1.80;;;25.10;1.00;;;;;;5046677;28;20220;-63
2023/07/22 10:55:20;;;;;;;3.00;2.20;;;24.60;1.00;;;;;;5043797;28;20216;-63
2023/07/22 10:57:55;;;;;;;2.10;1.90;;;24.20;1.00;;;;;;5046852;28;20184;-63
2023/07/22 11:00:29;;;;;;;2.30;2.00;;;24.90;1.00;;;;;;5048201;28;20184;-63
2023/07/22 11:03:12;;;;;;;2.87;1.83;;;25.30;99.90;;;;;;5044188;28;20286;-65
2023/07/22 11:05:52;;;;;;;2.08;1.80;;;25.70;1.00;;;;;;5045577;28;20202;-63
2023/07/22 11:08:36;;;;;;;2.20;1.77;;;25.50;1.00;;;;;;5044427;28;20212;-63
2023/07/22 11:11:07;;;;;;;1.70;1.70;;;25.10;1.00;;;;;;5043963;28;20583;-63
2023/07/22 11:13:42;;;;;;;2.27;1.97;;;24.50;1.00;;;;;;5038059;28;20213;-63
2023/07/22 11:16:12;;;;;;;4.83;1.90;;;24.60;1.00;;;;;;5035144;28;20201;-63
2023/07/22 11:18:41;;;;;;;1.80;1.80;;;24.40;1.00;;;;;;5036322;28;20217;-63
2023/07/22 11:21:11;;;;;;;3.50;1.80;;;24.30;1.00;;;;;;5042138;28;20189;-63
2023/07/22 11:23:39;;;;;;;1.77;1.70;;;24.70;99.90;;;;;;5039628;28;20606;-64
2023/07/22 11:26:09;;;;;;;1.87;1.80;;;25.60;99.90;;;;;;5043465;28;20204;-63
2023/07/22 11:28:38;;;;;;;1.48;1.48;;;25.90;1.00;;;;;;5048821;28;20191;-63
2023/07/22 11:31:06;;;;;;;2.37;1.80;;;26.40;1.00;;;;;;5045097;28;20545;-63
2023/07/22 11:33:46;;;;;;;3.50;1.83;;;26.50;99.90;;;;;;5043743;28;20196;-63
2023/07/22 11:36:15;;;;;;;1.90;1.80;;;26.20;1.00;;;;;;5044905;28;20196;-63
2023/07/22 11:38:43;;;;;;;1.90;1.80;;;26.10;99.90;;;;;;5048223;28;20190;-63
2023/07/22 11:41:14;;;;;;;2.03;1.88;;;25.80;1.00;;;;;;5053308;28;20188;-64
2023/07/22 11:43:43;;;;;;;2.20;2.00;;;25.90;99.90;;;;;;5038936;28;20537;-64
2023/07/22 11:46:12;;;;;;;3.33;1.80;;;26.20;14.90;;;;;;5044937;28;20185;-64
2023/07/22 11:48:40;;;;;;;3.20;1.90;;;26.50;1.00;;;;;;5047419;28;20228;-64
2023/07/22 11:51:09;;;;;;;1.90;1.80;;;26.30;32.20;;;;;;5045175;28;20560;-63
2023/07/22 11:53:38;;;;;;;1.80;1.70;;;26.00;1.00;;;;;;5044958;28;20207;-64
2023/07/22 11:56:11;;;;;;;1.90;1.80;;;25.80;99.90;;;;;;5047466;28;20197;-64
2023/07/22 11:58:42;;;;;;;2.20;1.77;;;25.60;1.00;;;;;;5052616;28;20188;-64
2023/07/22 12:01:12;;;;;;;2.03;1.93;;;25.20;1.00;;;;;;5046258;28;20204;-64
2023/07/22 12:03:41;;;;;;;2.07;1.83;;;25.40;1.00;;;;;;5060758;28;20193;-64
2023/07/22 12:06:09;;;;;;;8.20;2.27;;;25.20;1.00;;;;;;5047041;28;20303;-63
2023/07/22 12:08:43;;;;;;;4.50;2.03;;;25.00;1.00;;;;;;5044737;28;20198;-63
2023/07/22 12:11:18;;;;;;;5.90;1.80;;;25.00;99.90;;;;;;5045293;28;20201;-64
2023/07/22 12:13:50;;;;;;;1.97;1.90;;;25.10;1.00;;;;;;5041264;28;20811;-64
2023/07/22 12:16:24;;;;;;;1.97;1.87;;;24.80;1.00;;;;;;5043178;28;20197;-63
2023/07/22 12:18:56;;;;;;;4.13;1.80;;;24.50;1.00;;;;;;5047517;28;20185;-63
2023/07/22 12:21:24;;;;;;;2.00;1.90;;;24.20;1.00;;;;;;5047548;28;20268;-62
2023/07/22 12:23:54;;;;;;;2.20;2.00;;;24.00;1.00;;;;;;5047705;28;20216;-63
2023/07/22 12:26:23;;;;;;;3.03;1.97;;;23.80;1.00;;;;;;5038691;28;21520;-63
2023/07/22 12:28:53;;;;;;;2.00;1.90;;;23.80;99.90;;;;;;5057170;28;20672;-63
2023/07/22 12:31:21;;;;;;;2.00;1.80;;;23.60;1.00;;;;;;5045581;28;20204;-64
2023/07/22 12:33:50;;;;;;;1.97;1.57;;;23.30;99.90;;;;;;5052365;28;20198;-63
2023/07/22 12:36:18;;;;;;;1.67;1.57;;;23.00;1.00;;;;;;5042430;28;20210;-64
2023/07/22 12:38:46;;;;;;;2.57;1.90;;;22.70;1.00;;;;;;5045943;28;20221;-64
2023/07/22 12:41:15;;;;;;;2.97;1.60;;;22.60;1.00;;;;;;5053818;28;20182;-64
2023/07/22 12:43:43;;;;;;;1.83;1.70;;;22.50;1.00;;;;;;5059720;28;20188;-64
2023/07/22 12:46:13;;;;;;;1.83;1.60;;;22.50;1.00;;;;;;5057707;28;20194;-64
2023/07/22 12:48:41;;;;;;;3.77;1.83;;;22.60;99.90;;;;;;5064345;28;20623;-64
2023/07/22 12:51:10;;;;;;;5.13;2.10;;;22.50;1.00;;;;;;5055162;28;20216;-64
2023/07/22 12:53:38;;;;;;;4.70;1.90;;;22.60;1.00;;;;;;5054468;28;20190;-64